»·PEaware :: N623JB KLAX-KSAN

N623JB :: KLAX-KSAN

FLIGHT INFORMATION

Flight Status: Arrived
Operator: Privately registered:
United States
More flights under this callsign
Pilot: Jonathan B. (32222)
Aircraft: CIRRUS SR-22
(SR22)
More flights by this aircraft type
Origin: KLAX Los Angeles Intl
United States
Destination: KSAN San Diego Intl-Lindbergh
United States
More flights between these airports :: More routes between these airports
Route: +
File this flight plan on PilotEdge
Remarks:
Altitude:
(Current/Filed)
5,500ft
Speed:
(Current/Filed)
140kts
Departed: 13-Nov-20 09:36 AM
Arrived: 13-Nov-20 10:23 AM
Distance/Time
Traveled:
6795nm/0:47
Distance/Time
To Go:
Arrived

Flight Plot

Page will automatically refresh every two minutes.


Map Options




Map Legend


Flown Route
Filed Route
Departure Airport
Arrival Airport
Navaid (VOR, NDB)
Fix

Horizontal Profiles

Position Reports

Time Latitude Longitude Heading Altitude Ground
Speed
13-Nov-20 09:05 33.933622 -118.394156 271 120ft 0kts
13-Nov-20 09:06 33.933622 -118.394156 271 120ft 0kts
13-Nov-20 09:07 33.933622 -118.394156 271 120ft 0kts
13-Nov-20 09:08 33.933622 -118.394156 271 120ft 0kts
13-Nov-20 09:09 33.933622 -118.394156 271 120ft 0kts
13-Nov-20 09:10 33.933622 -118.394156 271 120ft 0kts
13-Nov-20 09:11 33.933622 -118.394156 271 120ft 0kts
13-Nov-20 09:12 33.933622 -118.394156 271 120ft 0kts
13-Nov-20 09:13 33.933622 -118.394156 271 120ft 0kts
13-Nov-20 09:14 33.933622 -118.394156 271 120ft 0kts
13-Nov-20 09:15 33.933622 -118.394156 271 120ft 0kts
13-Nov-20 09:16 33.933622 -118.394156 271 120ft 0kts
13-Nov-20 09:17 33.933622 -118.394156 271 120ft 0kts
13-Nov-20 09:18 33.933622 -118.394156 271 120ft 0kts
13-Nov-20 09:19 33.933622 -118.394156 271 120ft 0kts
13-Nov-20 09:20 33.933622 -118.394156 271 120ft 0kts
13-Nov-20 09:21 33.933622 -118.394156 271 120ft 0kts
13-Nov-20 09:22 33.933622 -118.394156 271 120ft 0kts
13-Nov-20 09:23 33.933622 -118.394156 271 120ft 0kts
13-Nov-20 09:24 33.933622 -118.394156 271 120ft 0kts
13-Nov-20 09:25 33.933622 -118.394156 271 120ft 0kts
13-Nov-20 09:26 33.933622 -118.394156 271 120ft 0kts
13-Nov-20 09:27 33.933793 -118.394326 10 120ft 8kts
13-Nov-20 09:28 33.935203 -118.391898 82 120ft 12kts
13-Nov-20 09:29 33.935648 -118.387498 83 120ft 13kts
13-Nov-20 09:30 33.936379 -118.382797 27 120ft 8kts
13-Nov-20 09:31 33.936463 -118.382771 356 120ft 0kts
13-Nov-20 09:32 33.936463 -118.382771 356 120ft 0kts
13-Nov-20 09:33 33.936463 -118.382771 356 120ft 0kts
13-Nov-20 09:34 33.936464 -118.382771 356 120ft 0kts
13-Nov-20 09:35 33.934802 -118.403782 260 466ft 123kts
13-Nov-20 09:36 33.917361 -118.431185 156 1532ft 143kts
13-Nov-20 09:37 33.881119 -118.408888 153 2525ft 146kts
13-Nov-20 09:38 33.847769 -118.389557 155 3377ft 126kts
13-Nov-20 09:39 33.815469 -118.369481 151 3496ft 126kts
13-Nov-20 09:40 33.785397 -118.349365 152 3508ft 122kts
13-Nov-20 09:41 33.755578 -118.329725 152 3507ft 122kts
13-Nov-20 09:42 33.725778 -118.309968 141 3507ft 122kts
13-Nov-20 09:43 33.713969 -118.274898 108 4153ft 114kts
13-Nov-20 09:44 33.702601 -118.236206 111 5296ft 130kts
13-Nov-20 09:45 33.687606 -118.190484 112 5494ft 153kts
13-Nov-20 09:46 33.676493 -118.141316 89 5507ft 154kts
13-Nov-20 09:47 33.674728 -118.090208 118 5511ft 154kts
13-Nov-20 09:48 33.645724 -118.053931 131 5511ft 153kts
13-Nov-20 09:49 33.615748 -118.017514 135 5511ft 153kts
13-Nov-20 09:50 33.585441 -117.981377 136 5512ft 153kts
13-Nov-20 09:51 33.555169 -117.945495 136 5512ft 153kts
13-Nov-20 09:52 33.524705 -117.909418 137 5512ft 153kts
13-Nov-20 09:53 33.494418 -117.873566 137 5513ft 153kts
13-Nov-20 09:54 33.464006 -117.837598 137 5514ft 153kts
13-Nov-20 09:55 33.433571 -117.801636 137 5513ft 153kts
13-Nov-20 09:56 33.403223 -117.765811 137 5514ft 153kts
13-Nov-20 09:57 33.372826 -117.729968 137 5513ft 152kts
13-Nov-20 09:58 33.343384 -117.695282 137 5513ft 145kts
13-Nov-20 09:59 33.314580 -117.661396 137 5513ft 145kts
13-Nov-20 10:00 33.285839 -117.627606 137 5517ft 147kts
13-Nov-20 10:01 33.256922 -117.593632 137 5511ft 144kts
13-Nov-20 10:02 33.228828 -117.560660 137 5510ft 139kts
13-Nov-20 10:03 33.201761 -117.528924 137 5507ft 131kts
13-Nov-20 10:05 33.175906 -117.498700 137 5226ft 134kts
13-Nov-20 10:06 33.148746 -117.466871 136 4017ft 140kts
13-Nov-20 10:07 33.123178 -117.436925 136 3523ft 113kts
13-Nov-20 10:08 33.098567 -117.408254 136 3518ft 135kts
13-Nov-20 10:09 33.071185 -117.376255 136 3499ft 139kts
13-Nov-20 10:10 33.043569 -117.344045 136 3499ft 138kts
13-Nov-20 10:11 33.016011 -117.311941 136 3500ft 138kts
13-Nov-20 10:12 32.988513 -117.279936 136 3499ft 138kts
13-Nov-20 10:13 32.954511 -117.263973 180 3505ft 137kts
13-Nov-20 10:14 32.916401 -117.259475 177 3499ft 137kts
13-Nov-20 10:15 32.878457 -117.255530 177 3500ft 136kts
13-Nov-20 10:16 32.852353 -117.243735 132 3824ft 111kts
13-Nov-20 10:17 32.827937 -117.216779 141 3102ft 115kts
13-Nov-20 10:18 32.801446 -117.195164 161 2276ft 119kts
13-Nov-20 10:19 32.768797 -117.189290 184 1227ft 124kts
13-Nov-20 10:19 32.747962 -117.174441 111 793ft 108kts
13-Nov-20 10:21 32.731490 -117.154041 216 848ft 91kts
13-Nov-20 10:21 32.730172 -117.175866 285 135ft 71kts
13-Nov-20 10:23 32.734000 -117.188060 24 13ft 0kts
13-Nov-20 10:23 32.734001 -117.188059 27 13ft 0kts
13-Nov-20 10:25 32.733393 -117.184244 106 16ft 16kts
13-Nov-20 10:26 32.733164 -117.179608 14 17ft 9kts
13-Nov-20 10:26 32.733607 -117.179461 14 16ft 2kts
13-Nov-20 10:28 0.000408 0.013975 0 3ft 0kts
13-Nov-20 10:28 0.000408 0.013975 0 3ft 0kts
13-Nov-20 10:29 0.000408 0.013975 0 3ft 0kts
13-Nov-20 10:30 0.000408 0.013975 0 3ft 0kts
13-Nov-20 10:31 0.000408 0.013975 0 3ft 0kts
13-Nov-20 10:32 0.000408 0.013975 0 3ft 0kts
13-Nov-20 10:33 0.000408 0.013975 0 3ft 0kts
13-Nov-20 10:34 0.000408 0.013975 0 3ft 0kts

Navigation Log

Ident Type
Flight plan parsing failed, navigation log unavailable